Time;durP1;ratioP1;P1;durP2;ratioP2;P2;SDS_P1;SDS_P2;PMS_P1;PMS_P2;Temp;Humidity;BMP_temperature;BMP_pressure;BME280_temperature;BME280_humidity;BME280_pressure;Samples;Min_cycle;Max_cycle;Signal;HPM_P1;HPM_P2
2022/05/17 00:01:44;;;;;;;5.30;4.20;;;;;;;;;;5034828;28;20249;-85
2022/05/17 00:04:12;;;;;;;6.90;4.63;;;;;;;;;;5034652;28;20293;-85
2022/05/17 00:06:39;;;;;;;5.77;4.97;;;;;;;;;;5034902;28;20256;-85
2022/05/17 00:09:06;;;;;;;7.23;4.87;;;;;;;;;;5034961;28;20198;-85
2022/05/17 00:11:34;;;;;;;5.43;5.00;;;;;;;;;;5034825;28;20199;-86
2022/05/17 00:14:03;;;;;;;6.67;4.47;;;;;;;;;;5034925;28;20202;-85
2022/05/17 00:16:30;;;;;;;5.87;5.37;;;;;;;;;;5034731;28;20575;-86
2022/05/17 00:18:57;;;;;;;11.03;6.33;;;;;;;;;;5034648;28;20194;-85
2022/05/17 00:21:24;;;;;;;6.90;6.13;;;;;;;;;;5034566;28;20237;-84
2022/05/17 00:23:52;;;;;;;7.60;6.53;;;;;;;;;;5034264;28;20227;-85
2022/05/17 00:26:19;;;;;;;6.80;6.10;;;;;;;;;;5034792;28;20209;-86
2022/05/17 00:28:46;;;;;;;6.70;6.13;;;;;;;;;;5034321;28;20694;-85
2022/05/17 00:31:15;;;;;;;6.70;6.20;;;;;;;;;;5034633;28;20213;-85
2022/05/17 00:33:42;;;;;;;6.37;5.87;;;;;;;;;;5034241;28;20199;-86
2022/05/17 00:36:10;;;;;;;7.40;6.57;;;;;;;;;;5034186;28;20206;-86
2022/05/17 00:38:37;;;;;;;7.40;6.07;;;;;;;;;;5034067;28;20203;-86
2022/05/17 00:41:04;;;;;;;8.13;6.67;;;;;;;;;;5033883;28;20313;-85
2022/05/17 00:44:42;;;;;;;6.00;5.40;;;;;;;;;;5034042;28;20205;-86
2022/05/17 00:46:41;;;;;;;5.53;5.13;;;;;;;;;;5033844;28;20264;-85
2022/05/17 00:49:10;;;;;;;6.53;6.03;;;;;;;;;;5033934;28;20197;-85
2022/05/17 00:51:38;;;;;;;6.53;6.00;;;;;;;;;;5034089;28;20194;-85
2022/05/17 00:54:11;;;;;;;6.60;6.00;;;;;;;;;;5034291;28;20304;-85
2022/05/17 00:56:41;;;;;;;5.57;5.17;;;;;;;;;;5033914;28;20191;-86
2022/05/17 00:59:09;;;;;;;5.77;5.33;;;;;;;;;;5034075;28;20671;-85
2022/05/17 01:01:38;;;;;;;6.83;6.23;;;;;;;;;;5033425;28;20313;-85
2022/05/17 01:04:09;;;;;;;6.33;5.83;;;;;;;;;;5033710;28;20234;-85
2022/05/17 01:06:40;;;;;;;6.17;5.23;;;;;;;;;;5033825;28;20570;-85
2022/05/17 01:09:07;;;;;;;7.57;6.43;;;;;;;;;;5033580;28;20187;-85
2022/05/17 01:11:34;;;;;;;7.03;6.30;;;;;;;;;;5033563;28;20198;-86
2022/05/17 01:16:48;;;;;;;6.30;5.73;;;;;;;;;;5033994;28;20186;-86
2022/05/17 01:19:15;;;;;;;6.70;6.17;;;;;;;;;;5033127;28;20725;-85
2022/05/17 01:21:44;;;;;;;6.73;6.13;;;;;;;;;;5033654;28;20222;-86
2022/05/17 01:24:12;;;;;;;7.03;5.43;;;;;;;;;;5033327;28;20234;-84
2022/05/17 01:26:42;;;;;;;6.63;6.00;;;;;;;;;;5033545;28;20586;-85
2022/05/17 01:29:10;;;;;;;6.70;6.20;;;;;;;;;;5033292;28;20260;-85
2022/05/17 01:31:38;;;;;;;6.80;5.80;;;;;;;;;;5033488;28;20281;-85
2022/05/17 01:34:07;;;;;;;6.07;5.57;;;;;;;;;;5033358;28;20671;-85
2022/05/17 01:36:34;;;;;;;7.23;5.90;;;;;;;;;;5033166;28;20191;-85
2022/05/17 01:39:04;;;;;;;6.57;5.97;;;;;;;;;;5033120;28;20671;-86
2022/05/17 01:41:33;;;;;;;7.00;6.40;;;;;;;;;;5032935;28;20222;-85
2022/05/17 01:44:00;;;;;;;6.20;5.70;;;;;;;;;;5032846;28;20202;-85
2022/05/17 01:46:28;;;;;;;6.63;6.03;;;;;;;;;;5032929;28;20195;-85
2022/05/17 01:48:55;;;;;;;6.90;6.40;;;;;;;;;;5032737;28;20210;-85
2022/05/17 01:51:23;;;;;;;6.57;6.07;;;;;;;;;;5032747;28;20195;-84
2022/05/17 01:53:51;;;;;;;8.00;6.43;;;;;;;;;;5032733;28;20249;-85
2022/05/17 01:56:20;;;;;;;6.37;5.77;;;;;;;;;;5032578;28;20566;-84
2022/05/17 01:58:47;;;;;;;7.03;6.40;;;;;;;;;;5032609;28;20238;-84
2022/05/17 02:01:14;;;;;;;6.90;6.30;;;;;;;;;;5032634;28;20602;-85
2022/05/17 02:03:41;;;;;;;7.23;6.53;;;;;;;;;;5032862;28;20623;-84
2022/05/17 02:06:08;;;;;;;7.90;7.03;;;;;;;;;;5032268;28;20209;-85
2022/05/17 02:08:36;;;;;;;6.97;6.37;;;;;;;;;;5032479;28;20292;-84
2022/05/17 02:11:03;;;;;;;6.77;6.27;;;;;;;;;;5032639;28;20198;-85
2022/05/17 02:13:33;;;;;;;7.33;6.57;;;;;;;;;;5031587;28;20201;-85
2022/05/17 02:16:00;;;;;;;10.53;7.03;;;;;;;;;;5032115;28;20729;-85
2022/05/17 02:18:28;;;;;;;7.73;7.03;;;;;;;;;;5032603;28;20668;-84
2022/05/17 02:20:55;;;;;;;7.70;6.97;;;;;;;;;;5032026;28;20222;-85
2022/05/17 02:23:22;;;;;;;7.07;6.30;;;;;;;;;;5032219;28;20721;-85
2022/05/17 02:25:50;;;;;;;7.30;6.70;;;;;;;;;;5031841;28;20198;-84
2022/05/17 02:28:17;;;;;;;7.57;6.97;;;;;;;;;;5032167;28;20206;-85
2022/05/17 02:30:46;;;;;;;7.77;7.07;;;;;;;;;;5032017;28;20233;-85
2022/05/17 02:33:13;;;;;;;7.30;6.67;;;;;;;;;;5032463;28;20202;-85
2022/05/17 02:35:41;;;;;;;7.00;6.40;;;;;;;;;;5031765;28;20229;-85
2022/05/17 02:38:09;;;;;;;7.93;7.33;;;;;;;;;;5032164;28;20201;-85
2022/05/17 02:40:37;;;;;;;6.90;6.30;;;;;;;;;;5031814;28;20234;-85
2022/05/17 02:43:05;;;;;;;7.73;7.00;;;;;;;;;;5032041;28;20194;-85
2022/05/17 02:45:33;;;;;;;8.20;7.47;;;;;;;;;;5031877;28;20317;-85
2022/05/17 02:48:02;;;;;;;7.17;6.67;;;;;;;;;;5031898;28;20712;-85
2022/05/17 02:50:29;;;;;;;8.07;7.43;;;;;;;;;;5031916;28;20199;-85
2022/05/17 02:52:56;;;;;;;7.70;7.10;;;;;;;;;;5031882;28;20558;-85
2022/05/17 02:55:24;;;;;;;8.17;7.27;;;;;;;;;;5031997;28;20194;-85
2022/05/17 02:57:51;;;;;;;7.27;6.67;;;;;;;;;;5032180;28;20273;-85
2022/05/17 03:00:19;;;;;;;8.00;7.17;;;;;;;;;;5031639;28;20667;-85
2022/05/17 03:02:46;;;;;;;11.30;7.07;;;;;;;;;;5031687;28;20222;-85
2022/05/17 03:05:15;;;;;;;8.10;6.37;;;;;;;;;;5024881;28;20231;-85
2022/05/17 03:07:42;;;;;;;7.57;6.97;;;;;;;;;;5018483;28;20203;-85
2022/05/17 03:10:11;;;;;;;7.50;6.67;;;;;;;;;;5011728;28;20250;-85
2022/05/17 03:12:38;;;;;;;7.83;7.13;;;;;;;;;;5012087;28;20202;-85
2022/05/17 03:15:07;;;;;;;7.13;6.53;;;;;;;;;;5011954;28;20205;-85
2022/05/17 03:17:34;;;;;;;6.60;6.00;;;;;;;;;;5012000;28;20210;-85
2022/05/17 03:20:01;;;;;;;8.70;7.93;;;;;;;;;;5011984;28;20227;-85
2022/05/17 03:22:30;;;;;;;6.97;6.43;;;;;;;;;;5012058;28;20334;-86
2022/05/17 03:24:57;;;;;;;13.27;7.60;;;;;;;;;;5015199;28;20571;-85
2022/05/17 03:27:24;;;;;;;7.60;6.80;;;;;;;;;;5015737;28;20234;-85
2022/05/17 03:29:52;;;;;;;7.53;6.83;;;;;;;;;;5015577;28;20684;-85
2022/05/17 03:32:19;;;;;;;7.30;6.60;;;;;;;;;;5015675;28;20306;-85
2022/05/17 03:34:46;;;;;;;8.00;7.30;;;;;;;;;;5015410;28;20286;-85
2022/05/17 03:37:14;;;;;;;9.13;7.70;;;;;;;;;;5015615;28;20279;-86
2022/05/17 03:39:43;;;;;;;8.03;7.00;;;;;;;;;;5015379;28;20720;-85
2022/05/17 03:42:11;;;;;;;7.37;6.77;;;;;;;;;;5015441;28;20234;-85
2022/05/17 03:44:38;;;;;;;8.50;7.80;;;;;;;;;;5015406;28;20282;-85
2022/05/17 03:47:07;;;;;;;9.20;8.30;;;;;;;;;;5015592;28;20241;-86
2022/05/17 03:49:34;;;;;;;8.90;8.20;;;;;;;;;;5015584;28;20604;-85
2022/05/17 03:52:02;;;;;;;9.03;8.20;;;;;;;;;;5015412;28;20203;-85
2022/05/17 03:54:29;;;;;;;8.23;7.37;;;;;;;;;;5015233;28;20191;-85
2022/05/17 03:56:58;;;;;;;8.03;7.40;;;;;;;;;;5015474;28;20582;-85
2022/05/17 03:59:25;;;;;;;8.30;7.30;;;;;;;;;;5015297;28;20202;-87
2022/05/17 04:01:52;;;;;;;7.77;7.17;;;;;;;;;;5015531;28;20316;-88
2022/05/17 04:04:19;;;;;;;7.20;6.50;;;;;;;;;;5017538;28;20203;-96
2022/05/17 04:06:47;;;;;;;7.30;6.57;;;;;;;;;;5015828;28;20253;-87
2022/05/17 04:09:15;;;;;;;7.50;6.80;;;;;;;;;;5015196;28;20199;-86
2022/05/17 04:11:42;;;;;;;7.40;6.57;;;;;;;;;;5015327;28;20199;-87
2022/05/17 04:14:11;;;;;;;6.93;6.40;;;;;;;;;;5014983;28;20202;-86
2022/05/17 04:16:40;;;;;;;7.00;6.30;;;;;;;;;;5018508;28;20277;-87
2022/05/17 04:19:07;;;;;;;8.17;6.50;;;;;;;;;;5025202;28;20258;-87
2022/05/17 04:21:35;;;;;;;7.03;6.53;;;;;;;;;;5014957;28;20238;-88
2022/05/17 04:24:02;;;;;;;15.07;7.30;;;;;;;;;;5015071;28;20625;-88
2022/05/17 04:26:29;;;;;;;7.43;6.73;;;;;;;;;;5015541;28;20205;-88
2022/05/17 04:28:56;;;;;;;7.43;6.70;;;;;;;;;;5015125;28;20204;-88
2022/05/17 04:31:25;;;;;;;8.27;6.80;;;;;;;;;;5015358;28;20192;-88
2022/05/17 04:33:53;;;;;;;7.07;6.47;;;;;;;;;;5015046;28;20206;-87
2022/05/17 04:36:20;;;;;;;9.00;6.80;;;;;;;;;;5017686;28;20206;-87
2022/05/17 04:38:47;;;;;;;6.67;6.07;;;;;;;;;;5034812;28;20671;-87
2022/05/17 04:41:15;;;;;;;6.33;5.80;;;;;;;;;;5034761;28;20618;-87
2022/05/17 04:43:42;;;;;;;6.83;6.10;;;;;;;;;;5035196;28;20195;-88
2022/05/17 04:46:10;;;;;;;6.73;5.87;;;;;;;;;;5034718;28;20202;-87
2022/05/17 04:48:39;;;;;;;5.77;5.27;;;;;;;;;;5034383;28;20199;-88
2022/05/17 04:51:07;;;;;;;6.80;5.50;;;;;;;;;;5034498;28;20648;-87
2022/05/17 04:53:35;;;;;;;8.67;5.47;;;;;;;;;;5034683;28;20205;-88
2022/05/17 04:56:02;;;;;;;7.10;6.53;;;;;;;;;;5034090;28;20209;-87
2022/05/17 04:58:29;;;;;;;6.70;6.10;;;;;;;;;;5034176;28;20261;-87
2022/05/17 05:00:57;;;;;;;9.60;8.10;;;;;;;;;;5034198;28;20297;-87
2022/05/17 05:03:24;;;;;;;9.07;8.27;;;;;;;;;;5033895;28;20280;-87
2022/05/17 05:05:53;;;;;;;9.57;8.47;;;;;;;;;;5034018;28;20236;-88
2022/05/17 05:08:20;;;;;;;8.03;7.33;;;;;;;;;;5034258;28;20199;-87
2022/05/17 05:10:48;;;;;;;9.13;8.23;;;;;;;;;;5033894;28;20194;-87
2022/05/17 05:13:16;;;;;;;7.17;6.47;;;;;;;;;;5034322;28;20643;-87
2022/05/17 05:15:43;;;;;;;10.33;6.87;;;;;;;;;;5033939;28;20203;-87
2022/05/17 05:18:10;;;;;;;7.10;6.43;;;;;;;;;;5034094;28;20302;-87
2022/05/17 05:20:38;;;;;;;6.57;6.07;;;;;;;;;;5033891;28;20197;-87
2022/05/17 05:23:07;;;;;;;6.77;6.17;;;;;;;;;;5033697;28;20707;-88
2022/05/17 05:25:35;;;;;;;7.57;6.37;;;;;;;;;;5034394;28;20255;-87
2022/05/17 05:28:03;;;;;;;6.50;5.70;;;;;;;;;;5033617;28;20197;-88
2022/05/17 05:30:30;;;;;;;8.37;5.20;;;;;;;;;;5033721;28;20285;-88
2022/05/17 05:32:58;;;;;;;5.70;5.00;;;;;;;;;;5033999;28;20264;-88
2022/05/17 05:35:26;;;;;;;5.27;4.87;;;;;;;;;;5033544;28;20254;-88
2022/05/17 05:37:53;;;;;;;6.70;5.37;;;;;;;;;;5033703;28;20272;-88
2022/05/17 05:40:23;;;;;;;5.87;5.40;;;;;;;;;;5033565;28;20289;-87
2022/05/17 05:42:50;;;;;;;5.63;5.13;;;;;;;;;;5033690;28;20581;-87
2022/05/17 05:45:19;;;;;;;7.20;5.53;;;;;;;;;;5033679;28;20228;-87
2022/05/17 05:47:46;;;;;;;5.23;4.73;;;;;;;;;;5033363;28;20201;-88
2022/05/17 05:50:14;;;;;;;7.60;4.60;;;;;;;;;;5033460;28;20602;-88
2022/05/17 05:52:41;;;;;;;6.43;5.03;;;;;;;;;;5033094;28;20293;-87
2022/05/17 05:55:09;;;;;;;6.57;4.97;;;;;;;;;;5033237;28;20586;-87
2022/05/17 05:57:38;;;;;;;5.90;5.37;;;;;;;;;;5033588;28;20205;-88
2022/05/17 06:00:08;;;;;;;5.80;5.20;;;;;;;;;;5033328;28;20198;-87
2022/05/17 06:02:35;;;;;;;5.60;5.17;;;;;;;;;;5033181;28;20261;-88
2022/05/17 06:05:02;;;;;;;4.77;4.37;;;;;;;;;;5033101;28;20195;-88
2022/05/17 06:07:29;;;;;;;7.07;5.07;;;;;;;;;;5033182;28;20213;-87
2022/05/17 06:09:57;;;;;;;5.03;4.60;;;;;;;;;;5032898;28;20242;-87
2022/05/17 06:12:24;;;;;;;5.00;4.60;;;;;;;;;;5032845;28;20257;-88
2022/05/17 06:14:52;;;;;;;5.00;4.60;;;;;;;;;;5032735;28;20205;-88
2022/05/17 06:17:24;;;;;;;4.60;4.30;;;;;;;;;;5032985;28;20205;-87
2022/05/17 06:19:52;;;;;;;4.80;4.30;;;;;;;;;;5032734;28;20550;-88
2022/05/17 06:22:19;;;;;;;4.70;4.27;;;;;;;;;;5032522;28;20315;-87
2022/05/17 06:24:46;;;;;;;4.87;4.47;;;;;;;;;;5032505;28;20198;-87
2022/05/17 06:27:13;;;;;;;5.17;4.37;;;;;;;;;;5032898;28;20566;-88
2022/05/17 06:29:40;;;;;;;4.67;4.23;;;;;;;;;;5032496;28;20199;-87
2022/05/17 06:32:12;;;;;;;5.40;4.20;;;;;;;;;;5032676;28;20199;-87
2022/05/17 06:34:40;;;;;;;4.60;3.90;;;;;;;;;;5032445;28;20639;-87
2022/05/17 06:37:07;;;;;;;5.17;3.93;;;;;;;;;;5032195;28;20195;-87
2022/05/17 06:39:35;;;;;;;8.03;4.47;;;;;;;;;;5032285;28;20190;-87
2022/05/17 06:42:03;;;;;;;4.80;4.03;;;;;;;;;;5032386;28;20289;-87
2022/05/17 06:44:31;;;;;;;4.93;4.43;;;;;;;;;;5032177;28;20272;-86
2022/05/17 06:46:59;;;;;;;4.67;4.00;;;;;;;;;;5032330;28;20277;-87
2022/05/17 06:49:29;;;;;;;4.17;3.80;;;;;;;;;;5032228;28;20198;-87
2022/05/17 06:51:57;;;;;;;6.00;4.10;;;;;;;;;;5032337;28;20222;-87
2022/05/17 06:54:25;;;;;;;4.20;3.90;;;;;;;;;;5032578;28;20200;-87
2022/05/17 06:56:52;;;;;;;4.60;3.83;;;;;;;;;;5032103;28;20199;-86
2022/05/17 06:59:20;;;;;;;5.93;3.50;;;;;;;;;;5034563;28;20201;-87
2022/05/17 07:01:49;;;;;;;7.40;3.80;;;;;;;;;;5036432;28;20277;-86
2022/05/17 07:04:16;;;;;;;5.43;3.07;;;;;;;;;;5036054;28;20656;-87
2022/05/17 07:06:47;;;;;;;4.33;3.93;;;;;;;;;;5036273;28;20239;-87
2022/05/17 07:09:14;;;;;;;3.40;3.10;;;;;;;;;;5036276;28;20195;-87
2022/05/17 07:14:25;;;;;;;4.13;3.53;;;;;;;;;;5036372;28;20193;-87
2022/05/17 07:16:53;;;;;;;3.50;3.20;;;;;;;;;;5035991;28;20206;-87
2022/05/17 07:19:21;;;;;;;3.90;3.60;;;;;;;;;;5035836;28;20203;-87
2022/05/17 07:21:49;;;;;;;5.13;4.13;;;;;;;;;;5035993;28;20197;-87
2022/05/17 07:24:19;;;;;;;6.70;4.20;;;;;;;;;;5035673;28;20230;-88
2022/05/17 07:26:46;;;;;;;4.87;3.90;;;;;;;;;;5035886;28;20198;-87
2022/05/17 07:29:14;;;;;;;6.10;4.27;;;;;;;;;;5035789;28;20215;-88
2022/05/17 07:31:41;;;;;;;6.43;4.47;;;;;;;;;;5036026;28;20284;-88
2022/05/17 07:34:08;;;;;;;4.73;4.37;;;;;;;;;;5035801;28;20195;-85
2022/05/17 07:36:35;;;;;;;7.20;3.63;;;;;;;;;;5035365;28;20198;-85
2022/05/17 07:39:04;;;;;;;8.27;5.00;;;;;;;;;;5035561;28;20205;-85
2022/05/17 07:41:32;;;;;;;5.13;4.07;;;;;;;;;;5035646;28;20198;-85
2022/05/17 07:43:59;;;;;;;4.70;4.40;;;;;;;;;;5035471;28;20218;-85
2022/05/17 07:46:27;;;;;;;5.43;4.73;;;;;;;;;;5036022;28;20240;-85
2022/05/17 07:48:54;;;;;;;5.10;4.63;;;;;;;;;;5035376;28;20245;-85
2022/05/17 07:51:21;;;;;;;5.80;5.30;;;;;;;;;;5035407;28;20205;-85
2022/05/17 07:53:48;;;;;;;8.27;4.93;;;;;;;;;;5035398;28;20191;-85
2022/05/17 07:56:17;;;;;;;5.90;5.30;;;;;;;;;;5035484;28;20305;-85
2022/05/17 07:58:44;;;;;;;12.37;7.80;;;;;;;;;;5035414;28;20195;-85
2022/05/17 08:01:12;;;;;;;9.53;7.63;;;;;;;;;;5035691;28;20571;-86
2022/05/17 08:03:39;;;;;;;8.57;7.30;;;;;;;;;;5035215;28;20745;-85
2022/05/17 08:06:06;;;;;;;7.73;6.97;;;;;;;;;;5035611;28;20202;-85
2022/05/17 08:08:34;;;;;;;9.43;6.97;;;;;;;;;;5035366;28;20577;-86
2022/05/17 08:11:01;;;;;;;10.83;8.60;;;;;;;;;;5033775;28;20216;-85
2022/05/17 08:13:30;;;;;;;10.73;8.63;;;;;;;;;;5035315;28;20194;-85
2022/05/17 08:15:58;;;;;;;9.97;8.90;;;;;;;;;;5035495;28;20647;-85
2022/05/17 08:18:25;;;;;;;9.40;7.80;;;;;;;;;;5035517;28;20200;-86
2022/05/17 08:20:52;;;;;;;8.93;8.23;;;;;;;;;;5035090;28;20226;-86
2022/05/17 08:23:19;;;;;;;9.27;8.17;;;;;;;;;;5034832;28;20237;-85
2022/05/17 08:28:32;;;;;;;7.23;6.00;;;;;;;;;;5035239;28;20186;-86
2022/05/17 08:31:00;;;;;;;7.33;6.23;;;;;;;;;;5035021;28;20203;-86
2022/05/17 08:33:27;;;;;;;9.00;6.00;;;;;;;;;;5035266;28;20205;-86
2022/05/17 08:35:56;;;;;;;9.97;7.00;;;;;;;;;;5035141;28;20202;-86
2022/05/17 08:38:27;;;;;;;9.40;8.57;;;;;;;;;;5034906;28;20213;-86
2022/05/17 08:41:00;;;;;;;7.67;6.93;;;;;;;;;;5034793;28;20733;-86
2022/05/17 08:43:35;;;;;;;8.27;7.47;;;;;;;;;;5034883;28;20214;-86
2022/05/17 08:46:19;;;;;;;7.37;6.67;;;;;;;;;;5034771;28;20225;-86
2022/05/17 08:48:52;;;;;;;8.10;7.30;;;;;;;;;;5034759;28;20210;-86
2022/05/17 08:51:30;;;;;;;7.53;6.83;;;;;;;;;;5035051;28;20187;-86
2022/05/17 08:53:58;;;;;;;6.93;6.33;;;;;;;;;;5034730;28;20281;-86
2022/05/17 08:56:26;;;;;;;8.43;7.53;;;;;;;;;;5034490;28;20198;-86
2022/05/17 08:58:56;;;;;;;9.20;8.30;;;;;;;;;;5034482;28;20277;-87
2022/05/17 09:01:25;;;;;;;7.97;7.37;;;;;;;;;;5034496;28;20674;-85
2022/05/17 09:04:05;;;;;;;8.57;7.07;;;;;;;;;;5034317;28;20230;-86
2022/05/17 09:06:39;;;;;;;6.93;6.40;;;;;;;;;;5034375;28;20248;-86
2022/05/17 09:09:08;;;;;;;8.83;6.87;;;;;;;;;;5034354;28;20661;-85
2022/05/17 09:11:46;;;;;;;6.73;6.03;;;;;;;;;;5034467;28;20202;-86
2022/05/17 09:14:18;;;;;;;7.83;7.23;;;;;;;;;;5034276;28;20647;-86
2022/05/17 09:16:48;;;;;;;6.33;5.83;;;;;;;;;;5034238;28;20682;-86
2022/05/17 09:19:15;;;;;;;6.50;5.90;;;;;;;;;;5034383;28;20198;-87
2022/05/17 09:21:44;;;;;;;5.93;5.50;;;;;;;;;;5033820;28;20205;-86
2022/05/17 09:24:14;;;;;;;6.90;6.30;;;;;;;;;;5033817;28;20234;-86
2022/05/17 09:26:45;;;;;;;6.50;6.03;;;;;;;;;;5034023;28;20206;-86
2022/05/17 09:29:18;;;;;;;8.33;5.97;;;;;;;;;;5034007;28;20201;-87
2022/05/17 09:31:52;;;;;;;7.10;4.87;;;;;;;;;;5034486;28;20237;-87
2022/05/17 09:34:26;;;;;;;8.10;5.87;;;;;;;;;;5034000;28;20305;-87
2022/05/17 09:36:55;;;;;;;6.97;4.70;;;;;;;;;;5033977;28;20273;-87
2022/05/17 09:39:23;;;;;;;4.83;4.43;;;;;;;;;;5034068;28;20194;-88
2022/05/17 09:41:51;;;;;;;4.93;4.53;;;;;;;;;;5034098;28;20204;-88
2022/05/17 09:44:24;;;;;;;4.30;3.90;;;;;;;;;;5034135;28;20257;-89
2022/05/17 09:46:54;;;;;;;4.82;4.43;;;;;;;;;;5033864;28;20241;-88
2022/05/17 09:54:55;;;;;;;4.70;4.17;;;;;;;;;;5034283;28;20186;-89
2022/05/17 09:57:25;;;;;;;7.33;4.00;;;;;;;;;;5034089;28;20256;-89
2022/05/17 09:59:55;;;;;;;4.80;4.40;;;;;;;;;;5033505;28;20214;-89
2022/05/17 10:02:36;;;;;;;4.43;4.00;;;;;;;;;;5034043;28;20571;-89
2022/05/17 10:05:24;;;;;;;6.23;4.53;;;;;;;;;;5033232;28;20226;-89
2022/05/17 10:08:02;;;;;;;4.05;3.75;;;;;;;;;;5033491;28;20197;-89
2022/05/17 10:10:36;;;;;;;4.70;4.23;;;;;;;;;;5033598;28;20261;-89
2022/05/17 10:13:11;;;;;;;4.30;3.92;;;;;;;;;;5033915;28;20225;-89
2022/05/17 10:15:41;;;;;;;4.88;4.47;;;;;;;;;;5033817;28;20630;-88
2022/05/17 10:18:16;;;;;;;5.95;4.75;;;;;;;;;;5033269;28;20194;-89
2022/05/17 10:20:46;;;;;;;7.13;4.63;;;;;;;;;;5033143;28;20194;-89
2022/05/17 10:23:25;;;;;;;7.13;4.55;;;;;;;;;;5032921;28;20625;-89
2022/05/17 10:25:54;;;;;;;6.13;4.65;;;;;;;;;;5032827;28;20229;-89
2022/05/17 10:28:28;;;;;;;5.47;3.83;;;;;;;;;;5033016;28;20199;-89
2022/05/17 10:30:59;;;;;;;4.75;4.28;;;;;;;;;;5033263;28;20565;-89
2022/05/17 10:33:32;;;;;;;5.10;4.70;;;;;;;;;;5032234;28;20282;-89
2022/05/17 10:36:04;;;;;;;6.72;4.82;;;;;;;;;;5033390;28;20697;-89
2022/05/17 10:38:36;;;;;;;4.37;4.03;;;;;;;;;;5033348;28;20262;-89
2022/05/17 10:41:06;;;;;;;7.43;3.87;;;;;;;;;;5033403;28;20197;-89
2022/05/17 10:43:36;;;;;;;6.13;4.53;;;;;;;;;;5032910;28;20237;-89
2022/05/17 10:46:11;;;;;;;4.50;4.20;;;;;;;;;;5033077;28;20590;-89
2022/05/17 10:48:43;;;;;;;4.95;4.55;;;;;;;;;;5032713;28;20206;-89
2022/05/17 10:51:17;;;;;;;5.50;4.60;;;;;;;;;;5033137;28;20187;-89
2022/05/17 10:53:56;;;;;;;4.57;4.18;;;;;;;;;;5032842;28;20254;-89
2022/05/17 10:56:32;;;;;;;5.30;4.03;;;;;;;;;;5032765;28;20183;-89
2022/05/17 10:59:06;;;;;;;4.70;4.38;;;;;;;;;;5032900;28;20194;-89
2022/05/17 11:01:42;;;;;;;4.45;4.15;;;;;;;;;;5032660;28;20187;-88
2022/05/17 11:04:57;;;;;;;7.47;4.35;;;;;;;;;;5032791;28;20212;-89
2022/05/17 11:07:31;;;;;;;6.27;4.20;;;;;;;;;;5028106;28;20230;-89
2022/05/17 11:10:04;;;;;;;4.28;3.97;;;;;;;;;;5032996;28;20206;-88
2022/05/17 11:12:36;;;;;;;4.90;4.50;;;;;;;;;;5032617;28;20194;-88
2022/05/17 11:15:08;;;;;;;5.82;4.80;;;;;;;;;;5033431;28;20194;-89
2022/05/17 11:17:41;;;;;;;7.13;4.87;;;;;;;;;;5032770;28;20640;-89
2022/05/17 11:20:12;;;;;;;5.60;4.53;;;;;;;;;;5032804;28;20183;-89
2022/05/17 11:22:44;;;;;;;6.17;4.53;;;;;;;;;;5032481;28;20269;-89
2022/05/17 11:25:25;;;;;;;4.33;3.97;;;;;;;;;;5032550;28;20206;-90
2022/05/17 11:28:16;;;;;;;6.47;4.70;;;;;;;;;;5032702;28;20265;-89
2022/05/17 11:30:48;;;;;;;4.40;4.07;;;;;;;;;;5032897;28;20582;-89
2022/05/17 11:33:36;;;;;;;4.43;4.13;;;;;;;;;;5032571;28;20233;-89
2022/05/17 11:36:05;;;;;;;4.70;4.28;;;;;;;;;;5032366;28;20234;-88
2022/05/17 11:38:48;;;;;;;4.22;3.83;;;;;;;;;;5032714;28;20587;-89
2022/05/17 11:41:37;;;;;;;7.35;4.22;;;;;;;;;;5032422;28;20677;-88
2022/05/17 11:44:20;;;;;;;5.90;4.68;;;;;;;;;;5032193;28;20226;-88
2022/05/17 11:46:54;;;;;;;4.85;4.45;;;;;;;;;;5035949;28;20183;-89
2022/05/17 11:49:31;;;;;;;4.78;4.00;;;;;;;;;;5036370;28;20217;-89
2022/05/17 11:52:21;;;;;;;4.50;4.10;;;;;;;;;;5035902;28;20656;-89
2022/05/17 11:54:51;;;;;;;5.15;3.80;;;;;;;;;;5035866;28;20187;-89
2022/05/17 11:58:00;;;;;;;5.65;4.30;;;;;;;;;;5035993;28;20199;-90
2022/05/17 12:00:39;;;;;;;4.45;3.92;;;;;;;;;;5035955;28;20194;-89
2022/05/17 12:03:06;;;;;;;4.30;3.47;;;;;;;;;;5035910;28;20227;-89
2022/05/17 12:05:59;;;;;;;5.95;4.10;;;;;;;;;;5035660;28;20721;-89
2022/05/17 12:08:31;;;;;;;4.45;4.15;;;;;;;;;;5036086;28;20641;-89
2022/05/17 12:11:02;;;;;;;5.03;4.32;;;;;;;;;;5035827;28;20553;-89
2022/05/17 12:13:32;;;;;;;5.65;4.00;;;;;;;;;;5035579;28;20273;-89
2022/05/17 12:16:00;;;;;;;6.38;3.60;;;;;;;;;;5036086;28;20221;-89
2022/05/17 12:18:44;;;;;;;4.10;3.55;;;;;;;;;;5035389;28;20198;-89
2022/05/17 12:21:35;;;;;;;4.57;4.10;;;;;;;;;;5035717;28;20186;-89
2022/05/17 12:24:11;;;;;;;4.30;4.00;;;;;;;;;;5035255;28;20321;-89
2022/05/17 12:26:52;;;;;;;4.10;3.90;;;;;;;;;;5035471;28;20260;-89
2022/05/17 12:32:10;;;;;;;3.78;3.47;;;;;;;;;;5035461;28;20293;-89
2022/05/17 12:34:38;;;;;;;5.18;4.05;;;;;;;;;;5035366;28;20293;-89
2022/05/17 12:37:12;;;;;;;4.38;3.65;;;;;;;;;;5034987;28;20202;-89
2022/05/17 12:45:14;;;;;;;5.10;4.60;;;;;;;;;;5035079;28;20303;-89
2022/05/17 12:47:45;;;;;;;4.47;4.18;;;;;;;;;;5035136;28;20191;-89
2022/05/17 12:50:16;;;;;;;5.40;4.35;;;;;;;;;;5035079;28;20320;-90
2022/05/17 12:52:46;;;;;;;4.60;4.28;;;;;;;;;;5035600;28;20256;-90
2022/05/17 12:55:19;;;;;;;4.50;4.10;;;;;;;;;;5035168;28;20671;-89
2022/05/17 12:57:47;;;;;;;5.30;4.53;;;;;;;;;;5034294;28;20195;-90
2022/05/17 13:00:17;;;;;;;4.70;4.10;;;;;;;;;;5035322;28;20277;-89
2022/05/17 13:02:46;;;;;;;5.72;4.53;;;;;;;;;;5035160;28;20205;-89
2022/05/17 13:05:29;;;;;;;4.30;4.00;;;;;;;;;;5034697;28;20630;-90
2022/05/17 13:08:03;;;;;;;4.38;3.88;;;;;;;;;;5034882;28;20189;-90
2022/05/17 13:10:30;;;;;;;6.00;4.10;;;;;;;;;;5034707;28;20187;-89
2022/05/17 13:12:59;;;;;;;6.28;4.00;;;;;;;;;;5034744;28;20198;-90
2022/05/17 13:15:27;;;;;;;3.97;3.67;;;;;;;;;;5034667;28;20619;-89
2022/05/17 13:17:57;;;;;;;4.65;4.35;;;;;;;;;;5034712;28;20683;-90
2022/05/17 13:20:26;;;;;;;5.30;4.30;;;;;;;;;;5034255;28;20186;-90
2022/05/17 13:22:54;;;;;;;4.60;4.20;;;;;;;;;;5034057;28;20324;-90
2022/05/17 13:25:27;;;;;;;4.45;4.05;;;;;;;;;;5034119;28;20233;-89
2022/05/17 13:27:55;;;;;;;4.20;3.90;;;;;;;;;;5034016;28;20190;-89
2022/05/17 13:30:28;;;;;;;4.43;4.00;;;;;;;;;;5034028;28;20237;-89
2022/05/17 13:32:55;;;;;;;4.82;4.18;;;;;;;;;;5034542;28;20206;-89
2022/05/17 13:35:25;;;;;;;4.22;3.80;;;;;;;;;;5033897;28;20198;-89
2022/05/17 13:37:57;;;;;;;4.07;3.78;;;;;;;;;;5033875;28;20198;-89
2022/05/17 13:40:44;;;;;;;6.35;4.30;;;;;;;;;;5033735;28;20233;-89
2022/05/17 13:43:31;;;;;;;6.15;4.20;;;;;;;;;;5034108;28;20226;-89
2022/05/17 13:46:17;;;;;;;7.13;3.50;;;;;;;;;;5033838;28;20209;-89
2022/05/17 13:48:58;;;;;;;4.95;4.53;;;;;;;;;;5033639;28;20682;-89
2022/05/17 13:51:28;;;;;;;6.50;4.15;;;;;;;;;;5033964;28;20190;-89
2022/05/17 13:54:00;;;;;;;4.05;3.75;;;;;;;;;;5033889;28;20199;-89
2022/05/17 13:56:32;;;;;;;4.88;4.00;;;;;;;;;;5033799;28;20191;-89
2022/05/17 13:59:02;;;;;;;3.65;3.28;;;;;;;;;;5033588;28;20190;-89
2022/05/17 14:01:34;;;;;;;5.10;4.15;;;;;;;;;;5033630;28;20743;-89
2022/05/17 14:04:11;;;;;;;3.85;3.42;;;;;;;;;;5033759;28;20205;-89
2022/05/17 14:07:01;;;;;;;4.63;4.22;;;;;;;;;;5033754;28;20544;-89
2022/05/17 14:12:19;;;;;;;6.57;3.80;;;;;;;;;;5034162;28;20210;-89
2022/05/17 14:14:47;;;;;;;5.68;3.55;;;;;;;;;;5033379;28;20210;-90
2022/05/17 14:17:18;;;;;;;4.90;4.28;;;;;;;;;;5033157;28;20282;-89
2022/05/17 14:19:49;;;;;;;6.13;3.72;;;;;;;;;;5033165;28;20639;-89
2022/05/17 14:22:17;;;;;;;4.57;3.50;;;;;;;;;;5032925;28;20190;-89
2022/05/17 14:24:45;;;;;;;4.18;3.78;;;;;;;;;;5033040;28;20214;-89
2022/05/17 14:27:12;;;;;;;6.80;4.20;;;;;;;;;;5033130;28;20244;-89
2022/05/17 14:29:41;;;;;;;3.63;3.33;;;;;;;;;;5033038;28;20225;-89
2022/05/17 14:32:08;;;;;;;5.30;3.90;;;;;;;;;;5033107;28;20668;-89
2022/05/17 14:34:35;;;;;;;5.43;3.85;;;;;;;;;;5032957;28;20226;-89
2022/05/17 14:37:04;;;;;;;3.20;3.00;;;;;;;;;;5032969;28;20668;-89
2022/05/17 14:39:32;;;;;;;3.70;3.40;;;;;;;;;;5033452;28;20194;-88
2022/05/17 14:41:59;;;;;;;4.33;3.93;;;;;;;;;;5033090;28;20237;-89
2022/05/17 14:44:29;;;;;;;4.50;3.93;;;;;;;;;;5033358;28;20229;-88
2022/05/17 14:47:01;;;;;;;6.07;3.20;;;;;;;;;;5032894;28;20685;-89
2022/05/17 14:49:29;;;;;;;4.07;3.67;;;;;;;;;;5032783;28;20193;-89
2022/05/17 14:51:57;;;;;;;4.70;3.90;;;;;;;;;;5032669;28;20206;-89
2022/05/17 14:54:24;;;;;;;4.25;3.65;;;;;;;;;;5033042;28;20206;-88
2022/05/17 14:56:52;;;;;;;4.97;3.23;;;;;;;;;;5032943;28;20195;-88
2022/05/17 14:59:19;;;;;;;3.95;3.53;;;;;;;;;;5032714;28;20198;-89
2022/05/17 15:01:48;;;;;;;4.47;3.43;;;;;;;;;;5032870;28;20234;-88
2022/05/17 15:04:19;;;;;;;4.67;3.50;;;;;;;;;;5032497;28;20663;-89
2022/05/17 15:06:50;;;;;;;4.33;3.30;;;;;;;;;;5032705;28;20214;-90
2022/05/17 15:09:22;;;;;;;4.20;3.40;;;;;;;;;;5034567;28;20277;-89
2022/05/17 15:11:49;;;;;;;3.97;3.17;;;;;;;;;;5032704;28;20274;-89
2022/05/17 15:14:16;;;;;;;4.47;2.87;;;;;;;;;;5032797;28;20576;-89
2022/05/17 15:16:44;;;;;;;4.83;3.03;;;;;;;;;;5032489;28;20226;-89
2022/05/17 15:19:13;;;;;;;6.47;3.57;;;;;;;;;;5033090;28;20664;-89
2022/05/17 15:21:43;;;;;;;3.90;3.60;;;;;;;;;;5036632;28;20206;-89
2022/05/17 15:24:11;;;;;;;3.60;3.03;;;;;;;;;;5036611;28;20230;-89
2022/05/17 15:26:38;;;;;;;6.10;3.13;;;;;;;;;;5036594;28;20610;-89